Flight Track Log - Related Links

Times and Time Zones

All times are in EDT time to prevent confusion due to time zone crossing. See the AAL2238 flight status page for this flight to view local times or setup timezone preferences in your user account.

Time Position Orientation Groundspeed Altitude Reporting Facility
EDT Latitude Longitude Course Direction KTS MPH feet Rate Location/Type
Fri 06:00:36 PM 37.6656 -97.4478 158° South 159 183 2,500  Level Kansas City Center
Fri 06:01:12 PM 37.6869 -97.4736 316° Northwest 171 197 4,000 2,488 Climbing Kansas City Center
Fri 06:01:58 PM 37.6675 -97.5117 237° Southwest 224 258 5,900 2,459 Climbing Kansas City Center
Fri 06:02:00 PM 37.4475 -97.4152 176° South  Level Estimated
Fri 06:02:13 PM 37.6489 -97.5136 185° South 240 276 6,500  Level Kansas City Center
Fri 06:03:00 PM 37.3472 -97.3957 171° South  Level FlightAware Approximate
Fri 06:03:01 PM 37.5944 -97.4950 165° South 272 313 8,000  Level Kansas City Center
Fri 06:04:00 PM 37.2459 -97.3871 162° South  Level Estimated
Fri 06:04:02 PM 37.5114 -97.4647 164° South 306 352 10,600  Level Kansas City Center
Fri 06:05:00 PM 37.1446 -97.3786 158° South  Level Estimated
Fri 06:05:05 PM 37.4094 -97.4306 165° South 372 428 13,000  Level Kansas City Center
Fri 06:06:07 PM 37.3014 -97.3956 166° South 394 453 15,800 2,537 Climbing Kansas City Center
Fri 06:07:08 PM 37.1897 -97.3469 161° South 417 480 18,200 2,448 Climbing Kansas City Center
Fri 06:08:12 PM 37.0511 -97.2878 161° South 430 495 20,900 2,323 Climbing Kansas City Center
Fri 06:09:12 PM 36.9319 -97.2369 161° South 441 507 23,000 1,645 Climbing Kansas City Center
Fri 06:10:16 PM 36.8100 -97.1853 161° South 452 520 24,300 1,465 Climbing Kansas City Center
Fri 06:11:19 PM 36.6806 -97.1811 179° South 465 535 26,100 1,756 Climbing Kansas City Center
Fri 06:12:19 PM 36.5578 -97.2222 195° South 460 529 27,900 1,854 Climbing Kansas City Center
Fri 06:13:22 PM 36.4081 -97.2717 195° South 462 532 29,900 1,680 Climbing Kansas City Center
Fri 06:14:24 PM 36.2842 -97.3103 194° South 463 533 31,400 1,574 Climbing Kansas City Center
Fri 06:15:24 PM 36.1633 -97.3503 195° South 454 522 33,100 1,248 Climbing Kansas City Center
Fri 06:16:29 PM 36.0453 -97.3889 195° South 445 512 34,000 432 Climbing Kansas City Center
Fri 06:17:29 PM 35.9286 -97.4275 195° South 439 505 34,000  Level Kansas City Center
Fri 06:18:30 PM 35.8111 -97.4650 195° South 437 503 34,000  Level Kansas City Center
Fri 06:19:35 PM 35.6706 -97.5097 194° South 438 504 34,000  Level Kansas City Center
Fri 06:20:35 PM 35.5539 -97.5475 195° South 438 504 34,000  Level Kansas City Center
Fri 06:21:40 PM 35.4367 -97.5844 194° South 442 509 34,000  Level Kansas City Center
Fri 06:22:39 PM 35.2933 -97.6069 187° South 447 514 34,000  Level Fort Worth Center
Fri 06:23:39 PM 35.1661 -97.5861 172° South 447 514 34,000  Level Fort Worth Center
Fri 06:24:39 PM 35.0411 -97.5683 173° South 452 520 34,000 -150 Level Fort Worth Center
Fri 06:25:39 PM 34.9181 -97.5503 173° South 458 527 33,700 -1,100 Descending Fort Worth Center
Fri 06:26:39 PM 34.7931 -97.5325 173° South 458 527 31,800 -2,083 Descending Fort Worth Center
Fri 06:27:40 PM 34.6617 -97.5144 174° South 464 534 29,500 -2,400 Descending Fort Worth Center
Fri 06:28:39 PM 34.5281 -97.4942 173° South 475 547 27,000 -2,471 Descending Fort Worth Center
Fri 06:29:39 PM 34.3944 -97.4764 174° South 480 552 24,600 -1,500 Descending Fort Worth Center
Fri 06:30:39 PM 34.2692 -97.4839 183° South 456 525 24,000 -300 Descending Fort Worth Center
Fri 06:31:39 PM 34.1525 -97.5364 200° South 451 519 24,000 -750 Level Fort Worth Center
Fri 06:32:39 PM 34.0292 -97.5514 186° South 446 513 22,500 -2,083 Descending Fort Worth Center
Fri 06:33:40 PM 33.9103 -97.5686 187° South 446 513 19,800 -2,628 Descending Fort Worth Center
Fri 06:34:40 PM 33.7933 -97.5833 186° South 441 507 17,200 -2,118 Descending Fort Worth Center
Fri 06:35:39 PM 33.6828 -97.6006 187° South 422 486 15,600 -1,700 Descending Fort Worth Center
Fri 06:36:40 PM 33.5700 -97.6178 187° South 406 467 13,800 -1,450 Descending Fort Worth Center
Fri 06:37:39 PM 33.4614 -97.6300 185° South 406 467 12,700 -1,261 Descending Fort Worth Center
Fri 06:38:39 PM 33.3592 -97.6225 176° South 375 432 11,300 -850 Descending Fort Worth Center
Fri 06:39:39 PM 33.2842 -97.5278 133° Southeast 349 402 11,000 -150 Descending Fort Worth Center
Fri 06:40:39 PM 33.2175 -97.4483 135° Southeast 380 437 11,000  Level Fort Worth Center
Fri 06:41:39 PM 33.1319 -97.3489 136° Southeast 393 452 11,000  Level Fort Worth Center
Fri 06:42:39 PM 33.0628 -97.2672 135° Southeast 385 443 11,000  Level Fort Worth Center
Fri 06:43:39 PM 32.9939 -97.1881 136° Southeast 339 390 11,000 -300 Level Fort Worth Center
Fri 06:44:39 PM 32.9250 -97.1683 166° South 253 291 10,400 -1,250 Descending Fort Worth Center
Fri 06:45:39 PM 32.8497 -97.1686 180° South 266 306 8,500 -1,850 Descending Fort Worth Center
Fri 06:46:39 PM 32.7789 -97.1689 180° South 266 306 6,700 -1,700 Descending Fort Worth Center
Fri 06:47:39 PM 32.7308 -97.1369 151° Southeast 221 254 5,100 -1,600 Descending Fort Worth Center

Login

Don't have an account? Register now (free) for customized features, flight alerts, and more!